Albany, NY

10:30 PM EST on February 27, 2017 (GMT -0500)
Whitehall | | Change Station

Elev 226 ft 42.65 °N, 73.80 °W | Updated 8 seconds ago

Clear
Clear
34.3 °F
Feels Like 34 °F
N
0.0
Wind Variable Wind from NW
Gusts 0.0 mph

Today
High -- | Low -- °F
--% Chance of Precip.
Yesterday
High -- | Low -- °F
Precip. -- in
Pressure 30.34 in
Visibility 10.0 miles
Clouds Few 8500 ft
Windchill 34 °F
Dew Point 22 °F
Humidity 60%
Rainfall 0.00 in
Snow Depth Not available.
6:33 AM 5:42 PM
Waxing Crescent, 3% visible
METAR KALB 280251Z 21006KT 10SM FEW085 02/M07 A3033 RMK AO2 SLP272 T00171072 50009
Pressure 30.34 in
Visibility 10.0 miles
Clouds Few 8500 ft
Windchill 34 °F
Dew Point 22 °F
Humidity 60%
Rainfall 0.00 in
Snow Depth Not available.
6:33 AM 5:42 PM
Waxing Crescent, 3% visible
METAR KALB 280251Z 21006KT 10SM FEW085 02/M07 A3033 RMK AO2 SLP272 T00171072 50009

Get Your Daily Forecast Email!

Thanks for signing up!

Be on the lookout for a verification email in your inbox.

You'll start receiving the daily forecast at 8 AM.

×

10-Day Weather Forecast

Almanac

Astronomy

Feb. 27, 2017 Rise Set
Actual Time
Civil Twilight
Nautical Twilight
Astronomical Twilight
Moon
Length of Visible Light
Length of Day
Tomorrow will be .
, % of the Moon is Illuminated

Today's Extremes

State Highs State Lows

Community

WunderPhotos

Upload Photos

1,962,540 photos uploaded!

WunderBlog® & News

Nearby

Air Quality

  Air Quality AQ Index Pollutant
Not available.

Snow Depth

Station Depth Elevation

Earthquake Activity

City Distance Mag. Time & Date
Minimum magnitude displayed is 2.5.

Coastal Water Temperatures

Place Temperature

Stations

Nearby Weather Stations

Station Location Temp. Windchill Dew Point Humidity Wind Precip. Elev Updated Type
                   

Watches & Warnings

There are currently no watches in effect.